Time;durP1;ratioP1;P1;durP2;ratioP2;P2;SDS_P1;SDS_P2;PMS_P1;PMS_P2;Temp;Humidity;BMP_temperature;BMP_pressure;BME280_temperature;BME280_humidity;BME280_pressure;Samples;Min_cycle;Max_cycle;Signal;HPM_P1;HPM_P2
2022/05/04 00:00:12;;;;;;;5.13;4.63;;;11.60;99.90;;;-141.84;61.76;17964.84;5111753;28;20621;-57
2022/05/04 00:02:42;;;;;;;4.93;4.17;;;11.50;99.90;;;-141.84;61.81;17956.72;5111913;28;20304;-58
2022/05/04 00:05:10;;;;;;;5.20;4.20;;;11.50;99.90;;;-141.84;61.57;17954.69;5111252;28;20893;-58
2022/05/04 00:07:38;;;;;;;4.73;4.23;;;11.40;99.90;;;-141.84;61.62;17934.38;5110817;28;20790;-58
2022/05/04 00:10:09;;;;;;;5.07;4.37;;;11.40;99.90;;;-141.84;62.16;17940.47;5111221;28;20231;-57
2022/05/04 00:12:37;;;;;;;5.20;4.40;;;11.40;99.90;;;-141.84;63.52;17922.16;5111065;28;20226;-58
2022/05/04 00:15:07;;;;;;;4.40;4.00;;;11.20;99.90;;;-141.84;64.24;17909.97;5111185;28;20294;-57
2022/05/04 00:17:35;;;;;;;5.40;4.70;;;11.10;99.90;;;-141.84;64.14;17899.81;5111444;28;20711;-57
2022/05/04 00:20:04;;;;;;;5.23;4.73;;;11.10;99.90;;;-141.84;63.87;17901.84;5111086;28;20262;-58
2022/05/04 00:22:32;;;;;;;4.43;4.03;;;11.10;99.90;;;-141.84;63.94;17940.47;5110567;28;20703;-59
2022/05/04 00:25:02;;;;;;;5.37;4.60;;;11.10;99.90;;;-141.84;64.22;17883.56;5110697;28;20306;-58
2022/05/04 00:27:31;;;;;;;4.80;4.40;;;11.10;99.90;;;-141.84;64.68;17883.56;5111111;28;20253;-60
2022/05/04 00:29:59;;;;;;;4.83;4.43;;;11.10;99.90;;;-141.84;64.78;17861.22;5110892;28;20649;-58
2022/05/04 00:32:28;;;;;;;4.77;4.30;;;11.10;99.90;;;-141.84;65.85;17834.81;5111658;28;20300;-57
2022/05/04 00:34:56;;;;;;;4.70;4.30;;;11.00;99.90;;;-141.84;66.17;17865.28;5110772;28;20238;-58
2022/05/04 00:37:24;;;;;;;4.63;4.20;;;11.00;99.90;;;-141.84;66.70;17853.09;5110796;28;20310;-59
2022/05/04 00:39:52;;;;;;;5.40;3.77;;;11.00;99.90;;;-141.84;67.56;17838.88;5110658;28;20306;-58
2022/05/04 00:42:22;;;;;;;6.33;4.43;;;10.90;99.90;;;-141.84;67.63;17820.59;5110819;28;20215;-57
2022/05/04 00:44:52;;;;;;;5.17;4.47;;;10.90;99.90;;;-141.84;67.57;17842.94;5111270;28;20239;-59
2022/05/04 00:47:20;;;;;;;5.17;4.67;;;10.90;99.90;;;-141.84;67.76;17802.31;5110838;28;20564;-57
2022/05/04 00:49:49;;;;;;;6.27;4.90;;;10.90;99.90;;;-141.84;67.11;17826.69;5110159;28;20235;-58
2022/05/04 00:52:19;;;;;;;6.73;4.80;;;10.90;99.90;;;-141.84;68.38;17771.84;5110448;28;20227;-58
2022/05/04 00:54:50;;;;;;;5.23;4.70;;;10.80;99.90;;;-141.84;69.17;17790.13;5109531;28;20310;-56
2022/05/04 00:58:54;;;;;;;5.27;4.80;;;10.80;99.90;;;-141.84;69.80;17771.84;5110492;28;20219;-57
2022/05/04 01:00:12;;;;;;;6.37;4.87;;;10.70;99.90;;;-141.84;69.20;17782.00;5110107;28;20715;-57
2022/05/04 01:02:42;;;;;;;5.93;4.90;;;10.70;99.90;;;-141.84;69.67;17769.81;5111150;28;20195;-59
2022/05/04 01:05:11;;;;;;;6.10;5.03;;;10.70;99.90;;;-141.84;69.55;17767.78;5110010;28;20231;-57
2022/05/04 01:07:42;;;;;;;6.47;5.50;;;10.70;99.90;;;-141.84;69.92;17755.59;5109641;28;20255;-58
2022/05/04 01:10:13;;;;;;;9.17;5.50;;;10.60;99.90;;;-141.84;70.76;17747.47;5110139;28;20227;-57
2022/05/04 01:12:47;;;;;;;6.70;4.97;;;10.50;99.90;;;-141.84;71.18;17737.31;5110318;28;20257;-56
2022/05/04 01:15:20;;;;;;;5.90;5.30;;;10.50;99.90;;;-141.84;71.06;17725.13;5109860;28;20222;-58
2022/05/04 01:17:49;;;;;;;6.13;5.53;;;10.50;99.90;;;-141.84;71.58;17723.09;5110656;28;20203;-58
2022/05/04 01:20:19;;;;;;;6.13;5.53;;;10.50;99.90;;;-141.84;71.86;17733.25;5110345;28;20310;-58
2022/05/04 01:22:48;;;;;;;6.07;5.47;;;10.40;99.90;;;-141.84;71.50;17712.94;5109910;28;20227;-58
2022/05/04 01:25:16;;;;;;;6.40;5.80;;;10.40;99.90;;;-141.84;72.15;17652.00;5109540;28;20650;-57
2022/05/04 01:27:44;;;;;;;6.60;5.90;;;10.40;99.90;;;-141.84;72.04;17714.97;5109944;28;20257;-58
2022/05/04 01:30:13;;;;;;;6.13;5.53;;;10.40;99.90;;;-141.84;72.82;17698.72;5109705;28;20235;-59
2022/05/04 01:32:41;;;;;;;6.27;5.67;;;10.30;99.90;;;-141.84;73.06;17666.22;5110669;28;20290;-57
2022/05/04 01:35:10;;;;;;;5.73;5.23;;;10.30;99.90;;;-141.84;73.01;17727.16;5109686;28;20332;-57
2022/05/04 01:37:38;;;;;;;6.60;5.50;;;10.30;99.90;;;-141.84;74.40;17690.59;5109639;28;20251;-58
2022/05/04 01:40:09;;;;;;;6.50;5.60;;;10.20;99.90;;;-141.84;74.71;17635.75;5110085;28;20247;-57
2022/05/04 01:42:37;;;;;;;6.80;5.83;;;10.10;99.90;;;-141.84;75.00;17621.53;5109785;28;20651;-58
2022/05/04 01:45:08;;;;;;;6.83;5.67;;;10.00;99.90;;;-141.84;74.54;17631.69;5109993;28;20287;-59
2022/05/04 01:47:38;;;;;;;6.37;5.77;;;10.00;99.90;;;-141.84;75.22;17656.06;5110278;28;20565;-58
2022/05/04 01:50:07;;;;;;;6.67;5.53;;;9.90;99.90;;;-141.84;75.31;17633.72;5109504;28;20353;-59
2022/05/04 01:52:35;;;;;;;6.23;5.63;;;10.00;99.90;;;-141.84;76.34;17633.72;5109593;28;20262;-57
2022/05/04 01:55:04;;;;;;;8.13;5.70;;;9.90;99.90;;;-141.84;76.09;17607.31;5109825;28;20305;-58
2022/05/04 01:57:33;;;;;;;7.03;5.50;;;9.90;99.90;;;-141.84;75.98;17627.63;5109981;28;20311;-57
2022/05/04 02:00:01;;;;;;;7.03;6.33;;;9.80;99.90;;;-141.84;76.09;17576.84;5109667;28;20290;-55
2022/05/04 02:02:29;;;;;;;6.97;6.17;;;9.90;99.90;;;-141.84;76.95;17617.47;5110627;28;20230;-57
2022/05/04 02:04:58;;;;;;;6.60;5.97;;;9.80;99.90;;;-141.84;77.37;17566.69;5109680;28;20231;-59
2022/05/04 02:07:27;;;;;;;6.70;5.97;;;9.80;99.90;;;-141.84;77.50;17582.94;5113040;28;20230;-56
2022/05/04 02:09:57;;;;;;;6.57;5.97;;;9.70;99.90;;;-141.84;77.55;17574.81;5113633;28;20280;-57
2022/05/04 02:12:28;;;;;;;8.63;6.27;;;9.70;99.90;;;-141.84;78.39;17572.78;5113480;28;20223;-57
2022/05/04 02:14:58;;;;;;;7.33;6.50;;;9.60;99.90;;;-141.84;77.92;17593.09;5113261;28;20219;-59
2022/05/04 02:17:28;;;;;;;7.10;6.40;;;9.60;99.90;;;-141.84;78.39;17570.75;5114612;28;20283;-58
2022/05/04 02:19:56;;;;;;;7.17;6.33;;;9.60;99.90;;;-141.84;78.73;17558.56;5113292;28;20226;-58
2022/05/04 02:22:24;;;;;;;8.33;6.50;;;9.50;99.90;;;-141.84;79.09;17560.59;5113385;28;20242;-58
2022/05/04 02:24:52;;;;;;;8.00;6.50;;;9.50;99.90;;;-141.84;79.52;17544.34;5113146;28;20553;-57
2022/05/04 02:27:20;;;;;;;8.50;5.83;;;9.50;99.90;;;-141.84;79.52;17538.25;5113460;28;20306;-58
2022/05/04 02:29:48;;;;;;;7.07;6.37;;;9.40;99.90;;;-141.84;79.51;17566.69;5114262;28;20294;-55
2022/05/04 02:32:18;;;;;;;7.90;6.17;;;9.40;99.90;;;-141.84;79.38;17570.75;5113444;28;20227;-57
2022/05/04 02:40:17;;;;;;;7.37;6.67;;;9.60;99.90;;;-141.84;78.74;17552.47;5113374;28;20605;-56
2022/05/04 02:42:46;;;;;;;7.07;6.13;;;9.50;99.90;;;-141.84;78.57;17540.28;5113351;28;20233;-57
2022/05/04 02:45:15;;;;;;;9.73;7.13;;;9.50;99.90;;;-141.84;78.38;17574.81;5113179;28;20292;-58
2022/05/04 02:47:44;;;;;;;7.20;6.37;;;9.50;99.90;;;-141.84;79.26;17554.50;5113503;28;20272;-57
2022/05/04 02:50:15;;;;;;;7.70;6.90;;;9.50;99.90;;;-141.84;79.31;17530.13;5112607;28;20223;-57
2022/05/04 02:52:43;;;;;;;7.60;6.77;;;9.40;99.90;;;-141.84;78.89;17522.00;5112690;28;20231;-57
2022/05/04 02:55:11;;;;;;;9.20;7.07;;;9.40;99.90;;;-141.84;79.18;17568.72;5112583;28;20224;-56
2022/05/04 02:57:39;;;;;;;8.13;6.97;;;9.40;99.90;;;-141.84;79.81;17550.44;5112730;28;20231;-57
2022/05/04 03:00:09;;;;;;;7.80;6.97;;;9.40;99.90;;;-141.84;79.23;17538.25;5112745;28;20686;-56
2022/05/04 03:02:37;;;;;;;10.07;7.03;;;9.40;99.90;;;-141.84;79.95;17524.03;5113143;28;20246;-57
2022/05/04 03:05:10;;;;;;;7.93;7.13;;;9.30;99.90;;;-141.84;81.20;17487.47;5112569;28;20280;-57
2022/05/04 03:07:39;;;;;;;8.10;7.07;;;9.20;99.90;;;-141.84;80.35;17546.38;5112193;28;20273;-56
2022/05/04 03:10:08;;;;;;;9.87;7.30;;;9.30;99.90;;;-141.84;80.24;17530.13;5112155;28;20276;-58
2022/05/04 03:12:36;;;;;;;8.87;7.40;;;9.20;99.90;;;-141.84;80.90;17499.66;5112278;28;20219;-55
2022/05/04 03:15:06;;;;;;;7.87;6.77;;;9.20;99.90;;;-141.84;81.03;17507.78;5112554;28;20243;-57
2022/05/04 03:17:35;;;;;;;9.37;7.20;;;9.20;99.90;;;-141.84;80.34;17491.53;5111911;28;20196;-59
2022/05/04 03:20:06;;;;;;;8.20;7.37;;;9.20;99.90;;;-141.84;80.09;17493.56;5111977;28;20232;-57
2022/05/04 03:22:34;;;;;;;8.73;7.53;;;9.20;99.90;;;-141.84;80.39;17493.56;5111997;28;20768;-55
2022/05/04 03:25:07;;;;;;;8.23;7.30;;;9.20;99.90;;;-141.84;80.61;17469.19;5112253;28;20230;-56
2022/05/04 03:27:36;;;;;;;9.60;7.60;;;9.20;99.90;;;-141.84;80.49;17465.13;5112010;28;20310;-60
2022/05/04 03:30:06;;;;;;;8.20;7.00;;;9.20;99.90;;;-141.84;80.55;17526.06;5112339;28;20268;-56
2022/05/04 03:32:34;;;;;;;12.10;8.03;;;9.20;99.90;;;-141.84;82.00;17469.19;5112433;28;20295;-59
2022/05/04 03:35:02;;;;;;;7.97;7.17;;;9.10;99.90;;;-141.84;82.39;17471.22;5112092;28;20223;-54
2022/05/04 03:37:31;;;;;;;10.13;7.87;;;9.00;99.90;;;-141.84;83.73;17463.09;5112135;28;20219;-58
2022/05/04 03:39:59;;;;;;;8.83;7.93;;;9.00;99.90;;;-141.84;84.05;17467.16;5111939;28;20247;-58
2022/05/04 03:42:27;;;;;;;9.70;7.43;;;8.90;99.90;;;-141.84;83.61;17446.88;5111944;28;20298;-59
2022/05/04 03:44:56;;;;;;;11.63;7.60;;;8.90;99.90;;;-141.84;83.04;17481.38;5112166;28;20203;-58
2022/05/04 03:47:23;;;;;;;10.13;8.20;;;8.90;99.90;;;-141.84;82.42;17469.19;5112359;28;20215;-57
2022/05/04 03:49:51;;;;;;;9.23;8.00;;;9.00;99.90;;;-141.84;81.19;17513.88;5111706;28;20223;-56
2022/05/04 03:52:21;;;;;;;10.03;8.10;;;9.10;99.90;;;-141.84;80.38;17517.94;5111688;28;20284;-61
2022/05/04 03:54:50;;;;;;;9.23;8.23;;;9.30;99.90;;;-141.84;79.94;17505.75;5111484;28;20651;-57
2022/05/04 03:57:18;;;;;;;9.33;7.77;;;9.40;99.90;;;-141.84;79.49;17513.88;5111625;28;20302;-59
2022/05/04 03:59:46;;;;;;;8.43;7.53;;;9.40;99.90;;;-141.84;80.23;17509.81;5112328;28;20268;-59
2022/05/04 04:02:14;;;;;;;11.30;8.23;;;9.40;99.90;;;-141.84;79.49;17509.81;5111171;28;20218;-57
2022/05/04 04:04:42;;;;;;;9.40;8.07;;;9.40;99.90;;;-141.84;79.35;17528.09;5111573;28;20227;-60
2022/05/04 04:07:10;;;;;;;8.60;7.70;;;9.40;99.90;;;-141.84;79.15;17515.91;5110793;28;20223;-57
2022/05/04 04:09:38;;;;;;;10.20;7.57;;;9.50;99.90;;;-141.84;79.59;17479.34;5111322;28;20230;-55
2022/05/04 04:12:09;;;;;;;8.73;7.90;;;9.50;99.90;;;-141.84;79.10;17515.91;5111155;28;20286;-59
2022/05/04 04:14:37;;;;;;;9.20;7.80;;;9.50;99.90;;;-141.84;78.36;17524.03;5111771;28;20196;-58
2022/05/04 04:17:06;;;;;;;8.67;7.77;;;9.60;99.90;;;-141.84;78.15;17519.97;5110739;28;20219;-57
2022/05/04 04:19:34;;;;;;;8.73;7.70;;;9.60;99.90;;;-141.84;78.96;17558.56;5110869;28;20651;-59
2022/05/04 04:22:01;;;;;;;9.23;7.77;;;9.60;99.90;;;-141.84;77.22;17526.06;5110745;28;20261;-58
2022/05/04 04:24:29;;;;;;;8.97;8.03;;;9.70;99.90;;;-141.84;76.45;17566.69;5111013;28;20253;-58
2022/05/04 04:26:57;;;;;;;9.83;7.87;;;9.80;99.90;;;-141.84;77.16;17517.94;5111101;28;20282;-60
2022/05/04 04:29:26;;;;;;;9.07;8.03;;;9.80;99.90;;;-141.84;76.98;17564.66;5111556;28;20591;-58
2022/05/04 04:31:54;;;;;;;10.53;7.40;;;9.70;99.90;;;-141.84;76.88;17544.34;5110534;28;20227;-56
2022/05/04 04:34:22;;;;;;;10.63;8.03;;;9.70;99.90;;;-141.84;76.99;17536.22;5110798;28;20234;-59
2022/05/04 04:36:50;;;;;;;8.63;7.60;;;9.70;99.90;;;-141.84;77.96;17522.00;5110834;28;20306;-58
2022/05/04 04:39:18;;;;;;;9.47;8.10;;;9.60;99.90;;;-141.84;75.60;17587.00;5110517;28;20711;-56
2022/05/04 04:41:46;;;;;;;8.97;7.97;;;9.80;99.90;;;-141.84;75.94;17552.47;5111210;28;20737;-57
2022/05/04 04:44:14;;;;;;;10.43;8.20;;;9.80;99.90;;;-141.84;74.68;17593.09;5110301;28;20241;-58
2022/05/04 04:46:43;;;;;;;9.63;8.40;;;9.80;99.90;;;-141.84;76.17;17526.06;5110726;28;20235;-57
2022/05/04 04:49:11;;;;;;;9.07;7.80;;;9.80;99.90;;;-141.84;77.28;17556.53;5110583;28;20229;-56
2022/05/04 04:51:39;;;;;;;8.73;7.73;;;9.80;99.90;;;-141.84;76.93;17546.38;5110269;28;20462;-57
2022/05/04 04:54:07;;;;;;;10.17;7.23;;;9.80;99.90;;;-141.84;74.75;17568.72;5110698;28;20199;-60
2022/05/04 04:56:35;;;;;;;8.00;7.23;;;10.00;99.90;;;-141.84;72.19;17621.53;5110761;28;20617;-56
2022/05/04 04:59:03;;;;;;;9.97;7.80;;;10.40;99.90;;;-141.84;67.45;17708.88;5110468;28;20688;-58
2022/05/04 05:01:31;;;;;;;10.70;7.07;;;11.00;99.90;;;-141.84;64.48;17763.72;5110624;28;20606;-60
2022/05/04 05:04:00;;;;;;;7.73;6.53;;;11.60;99.90;;;-141.84;60.98;17905.91;5109642;28;20348;-57
2022/05/04 05:06:30;;;;;;;7.70;6.77;;;12.10;99.90;;;-141.84;57.70;17989.22;5102522;28;20256;-59
2022/05/04 05:08:58;;;;;;;7.13;6.43;;;12.60;99.90;;;-141.84;55.56;18094.84;5089967;28;20620;-60
2022/05/04 05:11:26;;;;;;;7.93;6.80;;;13.00;99.90;;;-141.84;56.01;18054.22;5107875;28;20663;-59
2022/05/04 05:16:39;;;;;;;7.67;6.87;;;13.20;99.90;;;-141.84;58.35;18005.47;5111008;28;20251;-62
2022/05/04 05:19:08;;;;;;;8.73;6.93;;;12.90;99.90;;;-141.84;60.05;17936.41;5110864;28;20250;-58
2022/05/04 05:21:36;;;;;;;11.17;7.67;;;12.70;99.90;;;-141.84;61.48;17909.97;5110970;28;20231;-58
2022/05/04 05:24:06;;;;;;;9.00;7.57;;;12.40;99.90;;;-141.84;62.86;17859.19;5110730;28;20203;-57
2022/05/04 05:26:34;;;;;;;8.50;7.37;;;12.20;99.90;;;-141.84;64.04;17818.56;5111641;28;20238;-58
2022/05/04 05:29:02;;;;;;;11.13;7.70;;;12.00;99.90;;;-141.84;64.32;17794.19;5110710;28;20233;-58
2022/05/04 05:31:34;;;;;;;9.27;7.87;;;11.90;99.90;;;-141.84;65.27;17771.84;5110705;28;20234;-59
2022/05/04 05:34:02;;;;;;;10.07;7.50;;;11.70;99.90;;;-141.84;66.19;17779.97;5110649;28;20253;-55
2022/05/04 05:36:32;;;;;;;8.13;7.30;;;11.60;99.90;;;-141.84;67.62;17733.25;5110794;28;20298;-57
2022/05/04 05:39:00;;;;;;;10.03;7.43;;;11.50;99.90;;;-141.84;68.10;17696.69;5110525;28;20198;-54
2022/05/04 05:41:28;;;;;;;9.63;7.67;;;11.50;99.90;;;-141.84;65.70;17800.28;5110674;28;20210;-58
2022/05/04 05:43:55;;;;;;;9.47;7.37;;;11.70;99.90;;;-141.84;64.68;17804.34;5110334;28;20706;-57
2022/05/04 05:46:23;;;;;;;10.67;7.40;;;12.00;99.90;;;-141.84;63.47;17816.53;5110610;28;20237;-58
2022/05/04 05:48:51;;;;;;;10.80;7.20;;;12.10;99.90;;;-141.84;62.09;17865.28;5110336;28;20246;-58
2022/05/04 05:51:19;;;;;;;9.67;7.30;;;12.40;99.90;;;-141.84;62.10;17887.63;5110709;28;20215;-58
2022/05/04 05:53:48;;;;;;;10.60;6.37;;;12.40;99.90;;;-141.84;61.91;17871.38;5111051;28;20503;-60
2022/05/04 05:56:16;;;;;;;8.67;7.20;;;12.60;99.90;;;-141.84;62.96;17855.13;5110288;28;20318;-59
2022/05/04 05:58:44;;;;;;;9.43;7.30;;;12.70;99.90;;;-141.84;61.04;17883.56;5110407;28;20215;-58
2022/05/04 06:01:12;;;;;;;7.60;6.80;;;12.70;99.90;;;-141.84;59.56;17922.16;5110431;28;20308;-58
2022/05/04 06:03:40;;;;;;;8.40;6.87;;;12.80;99.90;;;-141.84;58.70;17960.78;5110410;28;20371;-60
2022/05/04 06:06:08;;;;;;;10.23;7.13;;;13.00;99.90;;;-141.84;58.39;17983.13;5110024;28;20699;-60
2022/05/04 06:08:37;;;;;;;8.33;7.43;;;13.20;99.90;;;-141.84;58.97;17952.66;5110892;28;20322;-58
2022/05/04 06:11:06;;;;;;;8.10;7.30;;;13.10;99.90;;;-141.84;59.99;17924.22;5110207;28;20327;-57
2022/05/04 06:13:34;;;;;;;8.73;7.27;;;13.00;99.90;;;-141.84;60.56;17928.28;5110374;28;20246;-57
2022/05/04 06:16:02;;;;;;;9.33;7.03;;;12.90;99.90;;;-141.84;59.81;17936.41;5110175;28;20258;-58
2022/05/04 06:18:30;;;;;;;8.00;7.10;;;12.90;99.90;;;-141.84;59.14;17950.63;5110553;28;20218;-59
2022/05/04 06:20:59;;;;;;;7.13;6.43;;;13.00;99.90;;;-141.84;59.90;17920.13;5110525;28;20243;-57
2022/05/04 06:23:27;;;;;;;9.77;7.43;;;13.10;99.90;;;-141.84;58.47;17989.22;5111043;28;20203;-58
2022/05/04 06:25:55;;;;;;;8.67;7.40;;;13.10;99.90;;;-141.84;58.62;17928.28;5110113;28;20298;-57
2022/05/04 06:28:24;;;;;;;9.80;7.10;;;13.20;99.90;;;-141.84;58.84;17972.97;5110503;28;20235;-59
2022/05/04 06:36:24;;;;;;;7.90;7.13;;;13.10;99.90;;;-141.84;59.67;17944.53;5110206;28;20569;-58
2022/05/04 06:38:52;;;;;;;10.63;8.03;;;13.20;99.90;;;-141.84;59.73;17968.91;5110762;28;20290;-59
2022/05/04 06:41:20;;;;;;;9.87;7.67;;;13.10;99.90;;;-141.84;59.50;17956.72;5110494;28;20223;-56
2022/05/04 06:43:50;;;;;;;8.53;7.00;;;13.00;99.90;;;-141.84;60.74;17928.28;5110380;28;20223;-57
2022/05/04 06:46:18;;;;;;;9.13;6.83;;;13.10;99.90;;;-141.84;59.86;17964.84;5110118;28;20624;-57
2022/05/04 06:48:46;;;;;;;10.93;7.13;;;13.40;99.90;;;-141.84;56.34;18058.28;5110340;28;20238;-55
2022/05/04 06:51:14;;;;;;;8.87;7.30;;;13.80;99.90;;;-141.84;56.57;18037.97;5110091;28;20227;-55
2022/05/04 06:53:42;;;;;;;8.63;7.00;;;14.00;99.90;;;-141.84;54.50;18082.66;5112837;28;20291;-59
2022/05/04 06:56:31;;;;;;;8.48;7.32;;;14.30;99.90;;;-141.84;55.11;18080.63;5113344;28;20609;-59
2022/05/04 06:59:00;;;;;;;9.52;7.07;;;14.30;99.90;;;-141.84;55.91;18070.47;5113921;28;20258;-57
2022/05/04 07:01:28;;;;;;;9.38;6.88;;;14.40;99.90;;;-141.84;56.34;18060.31;5113406;28;20247;-58
2022/05/04 07:03:57;;;;;;;9.50;6.50;;;14.20;99.90;;;-141.84;57.20;18078.59;5096120;28;20224;-57
2022/05/04 07:06:25;;;;;;;11.60;7.83;;;14.00;99.90;;;-141.84;57.66;18023.75;5092829;28;20745;-54
2022/05/04 07:08:53;;;;;;;11.07;7.18;;;13.70;99.90;;;-141.84;58.75;17987.19;5093390;28;20235;-60
2022/05/04 07:11:21;;;;;;;9.43;7.30;;;13.50;99.90;;;-141.84;59.95;17942.50;5092286;28;20293;-57
2022/05/04 07:13:49;;;;;;;8.70;7.10;;;13.30;99.90;;;-141.84;60.60;17928.28;5093052;28;20795;-57
2022/05/04 07:16:18;;;;;;;11.27;7.07;;;13.10;99.90;;;-141.84;62.67;17889.66;5092560;28;20228;-57
2022/05/04 07:18:46;;;;;;;9.33;7.83;;;12.90;99.90;;;-141.84;66.23;17798.25;5091460;28;20223;-56
2022/05/04 07:21:14;;;;;;;9.77;8.33;;;12.80;99.90;;;-141.84;65.81;17808.41;5104928;28;20306;-58
2022/05/04 07:23:42;;;;;;;9.87;7.60;;;12.70;99.90;;;-141.84;67.20;17784.03;5113107;28;20223;-57
2022/05/04 07:26:10;;;;;;;8.57;7.67;;;12.60;99.90;;;-141.84;67.58;17773.88;5112097;28;20310;-58
2022/05/04 07:28:38;;;;;;;9.23;6.73;;;12.50;99.90;;;-141.84;68.31;17731.22;5111961;28;20231;-57
2022/05/04 07:31:06;;;;;;;11.97;7.67;;;12.50;99.90;;;-141.84;68.26;17721.06;5112069;28;20722;-58
2022/05/04 07:33:35;;;;;;;8.00;7.13;;;12.30;99.90;;;-141.84;68.59;17717.00;5112117;28;20780;-57
2022/05/04 07:36:05;;;;;;;9.60;7.33;;;12.20;99.90;;;-141.84;68.73;17708.88;5112233;28;20411;-58
2022/05/04 07:38:32;;;;;;;10.10;7.63;;;12.20;99.90;;;-141.84;70.45;17680.44;5112455;28;20286;-57
2022/05/04 07:43:46;;;;;;;10.53;8.10;;;12.10;99.90;;;-141.84;73.13;17645.91;5111786;28;20309;-55
2022/05/04 07:46:14;;;;;;;11.33;8.27;;;12.10;99.90;;;-141.84;72.89;17615.44;5111763;28;20231;-57
2022/05/04 07:48:44;;;;;;;10.13;8.07;;;12.10;99.90;;;-141.84;72.78;17637.78;5111937;28;20227;-58
2022/05/04 07:51:12;;;;;;;10.00;7.97;;;12.10;99.90;;;-141.84;74.18;17584.97;5111829;28;20306;-58
2022/05/04 07:53:40;;;;;;;9.90;8.00;;;12.10;99.90;;;-141.84;75.97;17572.78;5112939;28;20762;-58
2022/05/04 07:56:08;;;;;;;10.60;8.57;;;12.00;99.90;;;-141.84;77.45;17546.38;5112344;28;20805;-56
2022/05/04 07:58:36;;;;;;;11.47;8.23;;;11.90;99.90;;;-141.84;77.02;17562.63;5112503;28;20665;-57
2022/05/04 08:06:37;;;;;;;12.10;8.53;;;11.80;99.90;;;-141.84;78.37;17546.38;5112139;28;20378;-56
2022/05/04 08:09:05;;;;;;;9.63;8.63;;;11.80;99.90;;;-141.84;77.24;17530.13;5106617;28;20239;-58
2022/05/04 08:11:33;;;;;;;11.37;9.23;;;11.80;99.90;;;-141.84;78.07;17538.25;5107053;28;20694;-55
2022/05/04 08:14:01;;;;;;;12.03;8.97;;;11.90;99.90;;;-141.84;79.26;17497.63;5112160;28;20674;-59
2022/05/04 08:16:29;;;;;;;9.03;8.10;;;11.90;99.90;;;-141.84;80.36;17483.41;5111836;28;20702;-61
2022/05/04 08:18:59;;;;;;;11.10;9.07;;;11.90;99.90;;;-141.84;78.69;17475.28;5112116;28;20227;-59
2022/05/04 08:21:27;;;;;;;10.03;9.10;;;11.90;99.90;;;-141.84;78.38;17540.28;5097108;28;20223;-60
2022/05/04 08:23:55;;;;;;;10.43;8.60;;;11.80;99.90;;;-141.84;77.09;17552.47;5091035;28;20203;-59
2022/05/04 08:26:23;;;;;;;11.70;8.40;;;11.90;99.90;;;-141.84;77.77;17536.22;5091683;28;20200;-59
2022/05/04 08:28:52;;;;;;;14.47;9.37;;;11.90;99.90;;;-141.84;77.92;17493.56;5091327;28;20224;-60
2022/05/04 08:31:21;;;;;;;10.47;9.40;;;11.90;99.90;;;-141.84;79.21;17493.56;5090809;28;20227;-58
2022/05/04 08:33:50;;;;;;;11.30;9.23;;;11.70;99.90;;;-141.84;82.54;17459.06;5090957;28;20255;-56
2022/05/04 08:36:19;;;;;;;10.03;9.00;;;11.70;99.90;;;-141.84;85.02;17392.03;5091000;28;20434;-57
2022/05/04 08:38:47;;;;;;;16.20;9.23;;;11.70;99.90;;;-141.84;85.14;17440.78;5093112;28;20319;-56
2022/05/04 08:41:16;;;;;;;12.87;9.20;;;11.70;99.90;;;-141.84;86.26;17398.13;5103346;28;20295;-56
2022/05/04 08:43:51;;;;;;;14.93;9.20;;;11.70;99.90;;;-141.84;87.39;17379.84;5104590;28;20222;-61
2022/05/04 08:46:24;;;;;;;11.60;9.13;;;11.70;99.90;;;-141.84;88.14;17387.97;5111226;28;20302;-62
2022/05/04 08:48:55;;;;;;;13.87;9.40;;;11.70;99.90;;;-141.84;87.77;17367.66;5111636;28;20231;-64
2022/05/04 08:51:24;;;;;;;11.93;9.37;;;11.60;99.90;;;-141.84;88.23;17337.19;5110945;28;20670;-59
2022/05/04 08:53:54;;;;;;;13.73;9.23;;;11.60;99.90;;;-141.84;88.72;17331.09;5111608;28;20224;-60
2022/05/04 08:56:22;;;;;;;16.70;9.90;;;11.60;99.90;;;-141.84;88.55;17349.38;5111481;28;20202;-57
2022/05/04 08:58:51;;;;;;;12.50;10.90;;;11.70;99.90;;;-141.84;89.36;17314.84;5111743;28;20278;-56
2022/05/04 09:01:19;;;;;;;12.23;10.40;;;11.70;99.90;;;-141.84;88.42;17353.44;5111302;28;20302;-52
2022/05/04 09:03:47;;;;;;;11.47;9.50;;;11.60;99.90;;;-141.84;88.63;17359.53;5111909;28;20247;-60
2022/05/04 09:06:28;;;;;;;12.87;10.40;;;11.50;99.90;;;-141.84;88.05;17333.13;5111661;28;20273;-58
2022/05/04 09:08:59;;;;;;;14.57;9.97;;;11.60;99.90;;;-141.84;87.39;17335.16;5111282;28;20552;-58
2022/05/04 09:11:27;;;;;;;13.87;11.70;;;11.60;99.90;;;-141.84;89.41;17337.19;5111063;28;20203;-58
2022/05/04 09:13:55;;;;;;;12.27;10.43;;;11.70;99.90;;;-141.84;90.28;17333.13;5112247;28;20310;-59
2022/05/04 09:16:32;;;;;;;14.17;10.33;;;11.70;99.90;;;-141.84;90.39;17296.56;5110115;28;20272;-58
2022/05/04 09:19:04;;;;;;;16.27;11.47;;;11.70;99.90;;;-141.84;90.58;17318.91;5111347;28;20233;-59
2022/05/04 09:21:34;;;;;;;11.90;10.27;;;11.80;99.90;;;-141.84;87.70;17355.47;5111053;28;20223;-56
2022/05/04 09:24:05;;;;;;;10.53;9.40;;;11.90;99.90;;;-141.84;87.51;17359.53;5111268;28;20254;-59
2022/05/04 09:26:39;;;;;;;13.03;10.00;;;11.80;99.90;;;-141.84;87.78;17314.84;5110890;28;20203;-59
2022/05/04 09:29:08;;;;;;;13.50;10.70;;;11.80;99.90;;;-141.84;88.92;17320.94;5112022;28;20274;-57
2022/05/04 09:31:41;;;;;;;12.30;9.83;;;11.90;99.90;;;-141.84;88.61;17361.56;5110626;28;20238;-59
2022/05/04 09:34:10;;;;;;;12.80;10.53;;;11.90;99.90;;;-141.84;88.56;17357.50;5111386;28;20694;-58
2022/05/04 09:44:53;;;;;;;16.73;10.47;;;11.90;99.90;;;-141.84;87.32;17349.38;5111035;28;20594;-58
2022/05/04 09:45:14;;;;;;;12.60;10.10;;;12.20;99.90;;;-141.84;87.05;17383.91;5110965;28;20303;-57
2022/05/04 09:47:45;;;;;;;12.90;9.47;;;12.10;99.90;;;-141.84;87.17;17379.84;5111187;28;20223;-58
2022/05/04 09:50:16;;;;;;;11.17;9.67;;;12.10;99.90;;;-141.84;87.49;17359.53;5109876;28;20370;-57
2022/05/04 09:52:48;;;;;;;12.60;9.83;;;12.10;99.90;;;-141.84;87.35;17337.19;5111042;28;20207;-56
2022/05/04 09:55:19;;;;;;;19.00;10.87;;;12.10;99.90;;;-141.84;86.91;17349.38;5110774;28;20231;-57
2022/05/04 09:57:49;;;;;;;14.57;9.90;;;12.20;99.90;;;-141.84;86.42;17390.00;5110858;28;20231;-56
2022/05/04 10:00:20;;;;;;;11.27;10.10;;;12.30;99.90;;;-141.84;86.64;17359.53;5110709;28;20225;-57
2022/05/04 10:02:50;;;;;;;15.53;9.70;;;12.30;99.90;;;-141.84;87.20;17351.41;5110733;28;20593;-55
2022/05/04 10:05:20;;;;;;;12.13;9.80;;;12.40;99.90;;;-141.84;86.66;17367.66;5111047;28;20195;-58
2022/05/04 10:07:52;;;;;;;13.37;9.90;;;12.50;99.90;;;-141.84;86.39;17341.25;5111121;28;20297;-57
2022/05/04 10:10:22;;;;;;;13.53;9.60;;;12.60;99.90;;;-141.84;85.83;17383.91;5110480;28;20225;-58
2022/05/04 10:12:50;;;;;;;11.37;9.57;;;12.60;99.90;;;-141.84;86.59;17331.09;5111012;28;20732;-58
2022/05/04 10:15:20;;;;;;;15.47;10.37;;;12.70;99.90;;;-141.84;86.71;17363.59;5110614;28;20218;-57
2022/05/04 10:17:56;;;;;;;10.90;9.40;;;12.80;99.90;;;-141.84;85.88;17379.84;5110277;28;20653;-58
2022/05/04 10:20:35;;;;;;;13.83;10.20;;;12.80;99.90;;;-141.84;86.00;17359.53;5110700;28;20230;-59
2022/05/04 10:23:16;;;;;;;13.90;10.97;;;12.90;99.90;;;-141.84;85.81;17379.84;5111490;28;20175;-58
2022/05/04 10:25:44;;;;;;;12.30;10.37;;;13.00;99.90;;;-141.84;85.28;17398.13;5110469;28;20619;-62
2022/05/04 10:28:15;;;;;;;11.33;10.07;;;13.10;99.90;;;-141.84;84.57;17396.09;5113724;28;20235;-58
2022/05/04 10:30:53;;;;;;;13.37;10.20;;;13.20;99.90;;;-141.84;83.59;17420.47;5114420;28;20530;-59
2022/05/04 10:33:32;;;;;;;13.40;9.80;;;13.40;99.90;;;-141.84;82.41;17420.47;5114712;28;20219;-59
2022/05/04 10:36:29;;;;;;;15.27;10.43;;;13.50;99.90;;;-141.84;81.40;17455.00;5114102;28;20720;-60
2022/05/04 10:39:04;;;;;;;10.07;8.63;;;13.60;99.90;;;-141.84;79.21;17479.34;5114094;28;20323;-60
2022/05/04 10:41:38;;;;;;;9.97;8.37;;;13.60;99.90;;;-141.84;78.17;17517.94;5114287;28;20254;-59